sensor_id;sensor_type;location;lat;lon;timestamp;pressure;altitude;pressure_sealevel;temperature;humidity
6032;BME280;3044;43.232;27.972;2024-02-16T00:00:08;45203.31;;;-143.84;88.71
6032;BME280;3044;43.232;27.972;2024-02-16T00:02:36;45209.03;;;-143.84;89.05
6032;BME280;3044;43.232;27.972;2024-02-16T00:05:04;45222.34;;;-143.84;88.71
6032;BME280;3044;43.232;27.972;2024-02-16T00:07:33;45209.03;;;-143.84;88.81
6032;BME280;3044;43.232;27.972;2024-02-16T00:10:01;45218.53;;;-143.84;88.85
6032;BME280;3044;43.232;27.972;2024-02-16T00:12:30;45205.22;;;-143.84;88.70
6032;BME280;3044;43.232;27.972;2024-02-16T00:14:57;45205.22;;;-143.84;89.18
6032;BME280;3044;43.232;27.972;2024-02-16T00:17:24;45197.59;;;-143.84;88.36
6032;BME280;3044;43.232;27.972;2024-02-16T00:19:52;45210.94;;;-143.84;88.91
6032;BME280;3044;43.232;27.972;2024-02-16T00:22:19;45197.59;;;-143.84;88.59
6032;BME280;3044;43.232;27.972;2024-02-16T00:24:47;45214.72;;;-143.84;88.69
6032;BME280;3044;43.232;27.972;2024-02-16T00:27:16;45212.84;;;-143.84;88.36
6032;BME280;3044;43.232;27.972;2024-02-16T00:29:43;45199.50;;;-143.84;88.55
6032;BME280;3044;43.232;27.972;2024-02-16T00:32:11;45220.44;;;-143.84;88.50
6032;BME280;3044;43.232;27.972;2024-02-16T00:34:39;45205.22;;;-143.84;88.37
6032;BME280;3044;43.232;27.972;2024-02-16T00:37:07;45199.50;;;-143.84;88.97
6032;BME280;3044;43.232;27.972;2024-02-16T00:39:35;45205.22;;;-143.84;88.53
6032;BME280;3044;43.232;27.972;2024-02-16T00:42:02;45214.72;;;-143.84;88.64
6032;BME280;3044;43.232;27.972;2024-02-16T00:44:31;45218.53;;;-143.84;88.46
6032;BME280;3044;43.232;27.972;2024-02-16T00:46:58;45184.25;;;-143.84;88.92
6032;BME280;3044;43.232;27.972;2024-02-16T00:49:25;45197.59;;;-143.84;89.24
6032;BME280;3044;43.232;27.972;2024-02-16T00:51:52;45203.31;;;-143.84;89.90
6032;BME280;3044;43.232;27.972;2024-02-16T00:54:19;45214.72;;;-143.84;89.73
6032;BME280;3044;43.232;27.972;2024-02-16T00:56:47;45218.53;;;-143.84;90.09
6032;BME280;3044;43.232;27.972;2024-02-16T00:59:14;45224.25;;;-143.84;90.66
6032;BME280;3044;43.232;27.972;2024-02-16T01:01:42;45209.03;;;-143.84;90.58
6032;BME280;3044;43.232;27.972;2024-02-16T01:04:09;45209.03;;;-143.84;91.26
6032;BME280;3044;43.232;27.972;2024-02-16T01:06:36;45229.97;;;-143.84;91.11
6032;BME280;3044;43.232;27.972;2024-02-16T01:09:03;45205.22;;;-143.84;91.74
6032;BME280;3044;43.232;27.972;2024-02-16T01:11:30;45210.94;;;-143.84;92.02
6032;BME280;3044;43.232;27.972;2024-02-16T01:13:57;45201.41;;;-143.84;92.19
6032;BME280;3044;43.232;27.972;2024-02-16T01:16:25;45212.84;;;-143.84;91.69
6032;BME280;3044;43.232;27.972;2024-02-16T01:18:53;45201.41;;;-143.84;92.13
6032;BME280;3044;43.232;27.972;2024-02-16T01:21:20;45210.94;;;-143.84;92.24
6032;BME280;3044;43.232;27.972;2024-02-16T01:23:47;45214.72;;;-143.84;92.17
6032;BME280;3044;43.232;27.972;2024-02-16T01:26:14;45188.06;;;-143.84;92.60
6032;BME280;3044;43.232;27.972;2024-02-16T01:28:41;45222.34;;;-143.84;92.65
6032;BME280;3044;43.232;27.972;2024-02-16T01:31:09;45199.50;;;-143.84;92.61
6032;BME280;3044;43.232;27.972;2024-02-16T01:33:37;45226.16;;;-143.84;92.60
6032;BME280;3044;43.232;27.972;2024-02-16T01:36:06;45220.44;;;-143.84;92.13
6032;BME280;3044;43.232;27.972;2024-02-16T01:38:33;45201.41;;;-143.84;92.68
6032;BME280;3044;43.232;27.972;2024-02-16T01:41:00;45218.53;;;-143.84;92.64
6032;BME280;3044;43.232;27.972;2024-02-16T01:43:28;45216.63;;;-143.84;92.30
6032;BME280;3044;43.232;27.972;2024-02-16T01:45:55;45201.41;;;-143.84;92.46
6032;BME280;3044;43.232;27.972;2024-02-16T01:48:24;45199.50;;;-143.84;92.23
6032;BME280;3044;43.232;27.972;2024-02-16T01:50:52;45216.63;;;-143.84;92.41
6032;BME280;3044;43.232;27.972;2024-02-16T01:53:22;45229.97;;;-143.84;91.80
6032;BME280;3044;43.232;27.972;2024-02-16T01:55:50;45222.34;;;-143.84;92.22
6032;BME280;3044;43.232;27.972;2024-02-16T01:58:17;45193.78;;;-143.84;91.99
6032;BME280;3044;43.232;27.972;2024-02-16T02:00:44;45201.41;;;-143.84;92.17
6032;BME280;3044;43.232;27.972;2024-02-16T02:03:11;45209.03;;;-143.84;92.06
6032;BME280;3044;43.232;27.972;2024-02-16T02:05:44;45207.13;;;-143.84;92.74
6032;BME280;3044;43.232;27.972;2024-02-16T02:08:13;45218.53;;;-143.84;92.69
6032;BME280;3044;43.232;27.972;2024-02-16T02:10:42;45233.78;;;-143.84;92.68
6032;BME280;3044;43.232;27.972;2024-02-16T02:13:09;45224.25;;;-143.84;92.98
6032;BME280;3044;43.232;27.972;2024-02-16T02:15:36;45218.53;;;-143.84;92.63
6032;BME280;3044;43.232;27.972;2024-02-16T02:18:03;45191.88;;;-143.84;92.81
6032;BME280;3044;43.232;27.972;2024-02-16T02:20:30;45216.63;;;-143.84;92.59
6032;BME280;3044;43.232;27.972;2024-02-16T02:22:59;45199.50;;;-143.84;92.57
6032;BME280;3044;43.232;27.972;2024-02-16T02:25:26;45191.88;;;-143.84;92.34
6032;BME280;3044;43.232;27.972;2024-02-16T02:27:54;45205.22;;;-143.84;92.31
6032;BME280;3044;43.232;27.972;2024-02-16T02:30:21;45201.41;;;-143.84;92.34
6032;BME280;3044;43.232;27.972;2024-02-16T02:32:49;45210.94;;;-143.84;92.31
6032;BME280;3044;43.232;27.972;2024-02-16T02:35:17;45256.63;;;-143.84;91.89
6032;BME280;3044;43.232;27.972;2024-02-16T02:37:45;45220.44;;;-143.84;92.23
6032;BME280;3044;43.232;27.972;2024-02-16T02:40:13;45220.44;;;-143.84;91.97
6032;BME280;3044;43.232;27.972;2024-02-16T02:42:41;45207.13;;;-143.84;91.71
6032;BME280;3044;43.232;27.972;2024-02-16T02:45:08;45205.22;;;-143.84;92.26
6032;BME280;3044;43.232;27.972;2024-02-16T02:47:35;45222.34;;;-143.84;92.23
6032;BME280;3044;43.232;27.972;2024-02-16T02:50:03;45197.59;;;-143.84;92.53
6032;BME280;3044;43.232;27.972;2024-02-16T02:52:30;45222.34;;;-143.84;92.43
6032;BME280;3044;43.232;27.972;2024-02-16T02:54:57;45220.44;;;-143.84;93.00
6032;BME280;3044;43.232;27.972;2024-02-16T02:57:26;45214.72;;;-143.84;93.32
6032;BME280;3044;43.232;27.972;2024-02-16T02:59:53;45231.88;;;-143.84;93.34
6032;BME280;3044;43.232;27.972;2024-02-16T03:02:29;45195.69;;;-143.84;93.39
6032;BME280;3044;43.232;27.972;2024-02-16T03:04:56;45174.75;;;-143.84;93.60
6032;BME280;3044;43.232;27.972;2024-02-16T03:07:25;45188.06;;;-143.84;93.77
6032;BME280;3044;43.232;27.972;2024-02-16T03:09:52;45228.06;;;-143.84;93.98
6032;BME280;3044;43.232;27.972;2024-02-16T03:12:19;45178.56;;;-143.84;94.31
6032;BME280;3044;43.232;27.972;2024-02-16T03:14:48;45216.63;;;-143.84;93.97
6032;BME280;3044;43.232;27.972;2024-02-16T03:17:15;45205.22;;;-143.84;94.18
6032;BME280;3044;43.232;27.972;2024-02-16T03:19:42;45216.63;;;-143.84;93.69
6032;BME280;3044;43.232;27.972;2024-02-16T03:22:09;45210.94;;;-143.84;94.11
6032;BME280;3044;43.232;27.972;2024-02-16T03:24:36;45214.72;;;-143.84;94.11
6032;BME280;3044;43.232;27.972;2024-02-16T03:27:03;45201.41;;;-143.84;94.16
6032;BME280;3044;43.232;27.972;2024-02-16T03:29:30;45207.13;;;-143.84;93.64
6032;BME280;3044;43.232;27.972;2024-02-16T03:31:59;45214.72;;;-143.84;93.94
6032;BME280;3044;43.232;27.972;2024-02-16T03:34:26;45214.72;;;-143.84;94.73
6032;BME280;3044;43.232;27.972;2024-02-16T03:36:53;45207.13;;;-143.84;94.31
6032;BME280;3044;43.232;27.972;2024-02-16T03:39:20;45235.69;;;-143.84;94.46
6032;BME280;3044;43.232;27.972;2024-02-16T03:41:48;45203.31;;;-143.84;94.28
6032;BME280;3044;43.232;27.972;2024-02-16T03:44:15;45229.97;;;-143.84;94.22
6032;BME280;3044;43.232;27.972;2024-02-16T03:46:42;45226.16;;;-143.84;94.44
6032;BME280;3044;43.232;27.972;2024-02-16T03:49:11;45209.03;;;-143.84;94.73
6032;BME280;3044;43.232;27.972;2024-02-16T03:51:38;45222.34;;;-143.84;95.01
6032;BME280;3044;43.232;27.972;2024-02-16T03:54:05;45205.22;;;-143.84;94.51
6032;BME280;3044;43.232;27.972;2024-02-16T03:56:32;45222.34;;;-143.84;95.26
6032;BME280;3044;43.232;27.972;2024-02-16T03:59:00;45228.06;;;-143.84;95.40
6032;BME280;3044;43.232;27.972;2024-02-16T04:01:27;45222.34;;;-143.84;95.16
6032;BME280;3044;43.232;27.972;2024-02-16T04:03:54;45228.06;;;-143.84;95.33
6032;BME280;3044;43.232;27.972;2024-02-16T04:06:22;45210.94;;;-143.84;95.46
6032;BME280;3044;43.232;27.972;2024-02-16T04:08:50;45224.25;;;-143.84;96.28
6032;BME280;3044;43.232;27.972;2024-02-16T04:11:17;45205.22;;;-143.84;96.16
6032;BME280;3044;43.232;27.972;2024-02-16T04:13:44;45224.25;;;-143.84;95.98
6032;BME280;3044;43.232;27.972;2024-02-16T04:16:11;45228.06;;;-143.84;95.34
6032;BME280;3044;43.232;27.972;2024-02-16T04:18:38;45216.63;;;-143.84;96.08
6032;BME280;3044;43.232;27.972;2024-02-16T04:21:05;45193.78;;;-143.84;95.39
6032;BME280;3044;43.232;27.972;2024-02-16T04:23:34;45212.84;;;-143.84;95.78
6032;BME280;3044;43.232;27.972;2024-02-16T04:26:01;45220.44;;;-143.84;95.70
6032;BME280;3044;43.232;27.972;2024-02-16T04:28:28;45222.34;;;-143.84;95.36
6032;BME280;3044;43.232;27.972;2024-02-16T04:30:55;45201.41;;;-143.84;95.13
6032;BME280;3044;43.232;27.972;2024-02-16T04:33:22;45186.16;;;-143.84;95.35
6032;BME280;3044;43.232;27.972;2024-02-16T04:35:49;45228.06;;;-143.84;94.93
6032;BME280;3044;43.232;27.972;2024-02-16T04:38:17;45228.06;;;-143.84;95.50
6032;BME280;3044;43.232;27.972;2024-02-16T04:40:45;45226.16;;;-143.84;95.16
6032;BME280;3044;43.232;27.972;2024-02-16T04:43:12;45203.31;;;-143.84;95.15
6032;BME280;3044;43.232;27.972;2024-02-16T04:45:40;45207.13;;;-143.84;94.88
6032;BME280;3044;43.232;27.972;2024-02-16T04:48:08;45235.69;;;-143.84;94.79
6032;BME280;3044;43.232;27.972;2024-02-16T04:50:35;45226.16;;;-143.84;94.89
6032;BME280;3044;43.232;27.972;2024-02-16T04:53:02;45222.34;;;-143.84;95.34
6032;BME280;3044;43.232;27.972;2024-02-16T04:55:29;45228.06;;;-143.84;95.40
6032;BME280;3044;43.232;27.972;2024-02-16T04:57:58;45226.16;;;-143.84;95.62
6032;BME280;3044;43.232;27.972;2024-02-16T05:00:25;45222.34;;;-143.84;94.94
6032;BME280;3044;43.232;27.972;2024-02-16T05:02:53;45201.41;;;-143.84;94.81
6032;BME280;3044;43.232;27.972;2024-02-16T05:05:20;45199.50;;;-143.84;95.05
6032;BME280;3044;43.232;27.972;2024-02-16T05:07:48;45229.97;;;-143.84;94.66
6032;BME280;3044;43.232;27.972;2024-02-16T05:10:16;45216.63;;;-143.84;94.82
6032;BME280;3044;43.232;27.972;2024-02-16T05:12:45;45249.00;;;-143.84;94.69
6032;BME280;3044;43.232;27.972;2024-02-16T05:15:13;45249.00;;;-143.84;94.85
6032;BME280;3044;43.232;27.972;2024-02-16T05:17:41;45218.53;;;-143.84;94.62
6032;BME280;3044;43.232;27.972;2024-02-16T05:20:10;45231.88;;;-143.84;94.82
6032;BME280;3044;43.232;27.972;2024-02-16T05:22:41;45239.50;;;-143.84;95.23
6032;BME280;3044;43.232;27.972;2024-02-16T05:25:09;45214.72;;;-143.84;95.21
6032;BME280;3044;43.232;27.972;2024-02-16T05:27:37;45209.03;;;-143.84;94.96
6032;BME280;3044;43.232;27.972;2024-02-16T05:30:05;45207.13;;;-143.84;95.17
6032;BME280;3044;43.232;27.972;2024-02-16T05:32:36;45226.16;;;-143.84;94.95
6032;BME280;3044;43.232;27.972;2024-02-16T05:35:04;45201.41;;;-143.84;95.00
6032;BME280;3044;43.232;27.972;2024-02-16T05:37:37;45199.50;;;-143.84;94.85
6032;BME280;3044;43.232;27.972;2024-02-16T05:40:07;45214.72;;;-143.84;94.88
6032;BME280;3044;43.232;27.972;2024-02-16T05:42:46;45317.56;;;-143.84;94.98
6032;BME280;3044;43.232;27.972;2024-02-16T05:45:13;45222.34;;;-143.84;94.84
6032;BME280;3044;43.232;27.972;2024-02-16T05:47:45;45226.16;;;-143.84;95.12
6032;BME280;3044;43.232;27.972;2024-02-16T05:50:13;45205.22;;;-143.84;94.62
6032;BME280;3044;43.232;27.972;2024-02-16T05:52:41;45247.09;;;-143.84;94.20
6032;BME280;3044;43.232;27.972;2024-02-16T05:55:09;45222.34;;;-143.84;94.13
6032;BME280;3044;43.232;27.972;2024-02-16T05:57:36;45209.03;;;-143.84;95.09
6032;BME280;3044;43.232;27.972;2024-02-16T06:00:05;45203.31;;;-143.84;95.19
6032;BME280;3044;43.232;27.972;2024-02-16T06:02:33;45233.78;;;-143.84;95.10
6032;BME280;3044;43.232;27.972;2024-02-16T06:05:02;45231.88;;;-143.84;95.31
6032;BME280;3044;43.232;27.972;2024-02-16T06:07:30;45224.25;;;-143.84;95.13
6032;BME280;3044;43.232;27.972;2024-02-16T06:09:58;45186.16;;;-143.84;95.08
6032;BME280;3044;43.232;27.972;2024-02-16T06:12:25;45226.16;;;-143.84;95.14
6032;BME280;3044;43.232;27.972;2024-02-16T06:14:52;45222.34;;;-143.84;95.17
6032;BME280;3044;43.232;27.972;2024-02-16T06:17:20;45210.94;;;-143.84;95.03
6032;BME280;3044;43.232;27.972;2024-02-16T06:19:47;45216.63;;;-143.84;95.68
6032;BME280;3044;43.232;27.972;2024-02-16T06:22:16;45201.41;;;-143.84;95.81
6032;BME280;3044;43.232;27.972;2024-02-16T06:24:43;45216.63;;;-143.84;95.56
6032;BME280;3044;43.232;27.972;2024-02-16T06:27:10;45180.47;;;-143.84;95.56
6032;BME280;3044;43.232;27.972;2024-02-16T06:29:37;45178.56;;;-143.84;95.88
6032;BME280;3044;43.232;27.972;2024-02-16T06:32:05;45205.22;;;-143.84;95.40
6032;BME280;3044;43.232;27.972;2024-02-16T06:34:32;45199.50;;;-143.84;95.41
6032;BME280;3044;43.232;27.972;2024-02-16T06:37:00;45233.78;;;-143.84;95.59
6032;BME280;3044;43.232;27.972;2024-02-16T06:39:28;45216.63;;;-143.84;95.64
6032;BME280;3044;43.232;27.972;2024-02-16T06:41:56;45209.03;;;-143.84;95.99
6032;BME280;3044;43.232;27.972;2024-02-16T06:44:23;45207.13;;;-143.84;95.07
6032;BME280;3044;43.232;27.972;2024-02-16T06:46:50;45229.97;;;-143.84;95.39
6032;BME280;3044;43.232;27.972;2024-02-16T06:49:17;45210.94;;;-143.84;94.82
6032;BME280;3044;43.232;27.972;2024-02-16T06:51:45;45203.31;;;-143.84;95.61
6032;BME280;3044;43.232;27.972;2024-02-16T06:54:12;45197.59;;;-143.84;95.05
6032;BME280;3044;43.232;27.972;2024-02-16T06:56:41;45214.72;;;-143.84;94.79
6032;BME280;3044;43.232;27.972;2024-02-16T06:59:09;45207.13;;;-143.84;95.30
6032;BME280;3044;43.232;27.972;2024-02-16T07:01:36;45203.31;;;-143.84;95.36
6032;BME280;3044;43.232;27.972;2024-02-16T07:04:04;45228.06;;;-143.84;95.22
6032;BME280;3044;43.232;27.972;2024-02-16T07:06:31;45239.50;;;-143.84;95.25
6032;BME280;3044;43.232;27.972;2024-02-16T07:08:58;45205.22;;;-143.84;95.32
6032;BME280;3044;43.232;27.972;2024-02-16T07:11:25;45212.84;;;-143.84;95.56
6032;BME280;3044;43.232;27.972;2024-02-16T07:13:54;45233.78;;;-143.84;94.94
6032;BME280;3044;43.232;27.972;2024-02-16T07:16:21;45235.69;;;-143.84;94.81
6032;BME280;3044;43.232;27.972;2024-02-16T07:18:48;45237.59;;;-143.84;94.67
6032;BME280;3044;43.232;27.972;2024-02-16T07:21:15;45212.84;;;-143.84;94.50
6032;BME280;3044;43.232;27.972;2024-02-16T07:23:46;45207.13;;;-143.84;94.39
6032;BME280;3044;43.232;27.972;2024-02-16T07:26:13;45178.56;;;-143.84;94.48
6032;BME280;3044;43.232;27.972;2024-02-16T07:28:43;45207.13;;;-143.84;95.07
6032;BME280;3044;43.232;27.972;2024-02-16T07:31:11;45235.69;;;-143.84;94.58
6032;BME280;3044;43.232;27.972;2024-02-16T07:33:40;45229.97;;;-143.84;94.56
6032;BME280;3044;43.232;27.972;2024-02-16T07:36:07;45214.72;;;-143.84;94.55
6032;BME280;3044;43.232;27.972;2024-02-16T07:38:35;45210.94;;;-143.84;94.48
6032;BME280;3044;43.232;27.972;2024-02-16T07:41:02;45203.31;;;-143.84;94.44
6032;BME280;3044;43.232;27.972;2024-02-16T07:43:30;45210.94;;;-143.84;94.51
6032;BME280;3044;43.232;27.972;2024-02-16T07:45:57;45210.94;;;-143.84;94.02
6032;BME280;3044;43.232;27.972;2024-02-16T07:48:26;45224.25;;;-143.84;94.05
6032;BME280;3044;43.232;27.972;2024-02-16T07:50:54;45228.06;;;-143.84;94.62
6032;BME280;3044;43.232;27.972;2024-02-16T07:53:24;45197.59;;;-143.84;94.82
6032;BME280;3044;43.232;27.972;2024-02-16T07:55:51;45224.25;;;-143.84;94.54
6032;BME280;3044;43.232;27.972;2024-02-16T07:58:18;45231.88;;;-143.84;95.19
6032;BME280;3044;43.232;27.972;2024-02-16T08:00:45;45195.69;;;-143.84;94.61
6032;BME280;3044;43.232;27.972;2024-02-16T08:03:12;45235.69;;;-143.84;94.59
6032;BME280;3044;43.232;27.972;2024-02-16T08:05:40;45228.06;;;-143.84;93.94
6032;BME280;3044;43.232;27.972;2024-02-16T08:08:08;45222.34;;;-143.84;94.21
6032;BME280;3044;43.232;27.972;2024-02-16T08:10:35;45201.41;;;-143.84;94.18
6032;BME280;3044;43.232;27.972;2024-02-16T08:13:02;45178.56;;;-143.84;93.69
6032;BME280;3044;43.232;27.972;2024-02-16T08:15:29;45203.31;;;-143.84;94.73
6032;BME280;3044;43.232;27.972;2024-02-16T08:17:56;45216.63;;;-143.84;94.32
6032;BME280;3044;43.232;27.972;2024-02-16T08:20:24;45207.13;;;-143.84;94.34
6032;BME280;3044;43.232;27.972;2024-02-16T08:22:52;45243.31;;;-143.84;93.68
6032;BME280;3044;43.232;27.972;2024-02-16T08:25:19;45199.50;;;-143.84;94.45
6032;BME280;3044;43.232;27.972;2024-02-16T08:27:48;45224.25;;;-143.84;93.69
6032;BME280;3044;43.232;27.972;2024-02-16T08:30:16;45207.13;;;-143.84;93.74
6032;BME280;3044;43.232;27.972;2024-02-16T08:32:43;45220.44;;;-143.84;93.82
6032;BME280;3044;43.232;27.972;2024-02-16T08:35:10;45205.22;;;-143.84;94.00
6032;BME280;3044;43.232;27.972;2024-02-16T08:37:39;45229.97;;;-143.84;93.63
6032;BME280;3044;43.232;27.972;2024-02-16T08:40:09;45195.69;;;-143.84;92.73
6032;BME280;3044;43.232;27.972;2024-02-16T08:42:39;45207.13;;;-143.84;92.25
6032;BME280;3044;43.232;27.972;2024-02-16T08:45:08;45229.97;;;-143.84;92.10
6032;BME280;3044;43.232;27.972;2024-02-16T08:47:35;45205.22;;;-143.84;91.74
6032;BME280;3044;43.232;27.972;2024-02-16T08:50:06;45207.13;;;-143.84;91.18
6032;BME280;3044;43.232;27.972;2024-02-16T08:52:33;45205.22;;;-143.84;91.00
6032;BME280;3044;43.232;27.972;2024-02-16T08:55:01;45205.22;;;-143.84;90.09
6032;BME280;3044;43.232;27.972;2024-02-16T08:57:31;45214.72;;;-143.84;89.51
6032;BME280;3044;43.232;27.972;2024-02-16T09:00:00;45235.69;;;-143.84;89.25
6032;BME280;3044;43.232;27.972;2024-02-16T09:02:27;45207.13;;;-143.84;88.91
6032;BME280;3044;43.232;27.972;2024-02-16T09:04:54;45193.78;;;-143.84;89.27
6032;BME280;3044;43.232;27.972;2024-02-16T09:07:21;45212.84;;;-143.84;89.21
6032;BME280;3044;43.232;27.972;2024-02-16T09:09:51;45212.84;;;-143.84;89.24
6032;BME280;3044;43.232;27.972;2024-02-16T09:12:18;45214.72;;;-143.84;89.18
6032;BME280;3044;43.232;27.972;2024-02-16T09:14:47;45180.47;;;-143.84;89.42
6032;BME280;3044;43.232;27.972;2024-02-16T09:17:14;45214.72;;;-143.84;88.87
6032;BME280;3044;43.232;27.972;2024-02-16T09:19:41;45212.84;;;-143.84;89.02
6032;BME280;3044;43.232;27.972;2024-02-16T09:22:09;45210.94;;;-143.84;88.73
6032;BME280;3044;43.232;27.972;2024-02-16T09:24:39;45193.78;;;-143.84;89.21
6032;BME280;3044;43.232;27.972;2024-02-16T09:27:06;45218.53;;;-143.84;89.15
6032;BME280;3044;43.232;27.972;2024-02-16T09:29:35;45231.88;;;-143.84;89.36
6032;BME280;3044;43.232;27.972;2024-02-16T09:32:05;45210.94;;;-143.84;88.52
6032;BME280;3044;43.232;27.972;2024-02-16T09:34:32;45193.78;;;-143.84;89.11
6032;BME280;3044;43.232;27.972;2024-02-16T09:37:00;45207.13;;;-143.84;89.21
6032;BME280;3044;43.232;27.972;2024-02-16T09:39:27;45205.22;;;-143.84;89.38
6032;BME280;3044;43.232;27.972;2024-02-16T09:41:54;45216.63;;;-143.84;89.37
6032;BME280;3044;43.232;27.972;2024-02-16T09:44:22;45197.59;;;-143.84;89.27
6032;BME280;3044;43.232;27.972;2024-02-16T09:46:50;45193.78;;;-143.84;89.24
6032;BME280;3044;43.232;27.972;2024-02-16T09:49:22;45209.03;;;-143.84;89.02
6032;BME280;3044;43.232;27.972;2024-02-16T09:51:49;45228.06;;;-143.84;88.97
6032;BME280;3044;43.232;27.972;2024-02-16T09:54:16;45209.03;;;-143.84;88.96
6032;BME280;3044;43.232;27.972;2024-02-16T09:56:43;45207.13;;;-143.84;88.66
6032;BME280;3044;43.232;27.972;2024-02-16T09:59:12;45228.06;;;-143.84;88.24
6032;BME280;3044;43.232;27.972;2024-02-16T10:01:39;45216.63;;;-143.84;87.85
6032;BME280;3044;43.232;27.972;2024-02-16T10:04:06;45195.69;;;-143.84;88.03
6032;BME280;3044;43.232;27.972;2024-02-16T10:06:45;45201.41;;;-143.84;88.78
6032;BME280;3044;43.232;27.972;2024-02-16T10:09:22;45224.25;;;-143.84;88.27
6032;BME280;3044;43.232;27.972;2024-02-16T10:11:50;45228.06;;;-143.84;88.78
6032;BME280;3044;43.232;27.972;2024-02-16T10:14:18;45224.25;;;-143.84;88.48
6032;BME280;3044;43.232;27.972;2024-02-16T10:16:46;45195.69;;;-143.84;88.38
6032;BME280;3044;43.232;27.972;2024-02-16T10:19:14;45197.59;;;-143.84;88.14
6032;BME280;3044;43.232;27.972;2024-02-16T10:21:42;45199.50;;;-143.84;87.25
6032;BME280;3044;43.232;27.972;2024-02-16T10:24:11;45222.34;;;-143.84;87.48
6032;BME280;3044;43.232;27.972;2024-02-16T10:26:40;45210.94;;;-143.84;87.97
6032;BME280;3044;43.232;27.972;2024-02-16T10:29:09;45205.22;;;-143.84;88.44
6032;BME280;3044;43.232;27.972;2024-02-16T10:31:36;45226.16;;;-143.84;89.15
6032;BME280;3044;43.232;27.972;2024-02-16T10:34:05;45195.69;;;-143.84;89.28
6032;BME280;3044;43.232;27.972;2024-02-16T10:36:33;45214.72;;;-143.84;89.85
6032;BME280;3044;43.232;27.972;2024-02-16T10:39:03;45220.44;;;-143.84;90.32
6032;BME280;3044;43.232;27.972;2024-02-16T10:41:33;45243.31;;;-143.84;91.34
6032;BME280;3044;43.232;27.972;2024-02-16T10:44:02;45210.94;;;-143.84;91.48
6032;BME280;3044;43.232;27.972;2024-02-16T10:46:29;45188.06;;;-143.84;91.74
6032;BME280;3044;43.232;27.972;2024-02-16T10:48:57;45195.69;;;-143.84;92.14
6032;BME280;3044;43.232;27.972;2024-02-16T10:51:29;45210.94;;;-143.84;91.75
6032;BME280;3044;43.232;27.972;2024-02-16T10:54:00;45212.84;;;-143.84;91.65
6032;BME280;3044;43.232;27.972;2024-02-16T10:56:32;45205.22;;;-143.84;90.89
6032;BME280;3044;43.232;27.972;2024-02-16T10:59:02;45205.22;;;-143.84;90.80
6032;BME280;3044;43.232;27.972;2024-02-16T11:01:32;45210.94;;;-143.84;90.49
6032;BME280;3044;43.232;27.972;2024-02-16T11:04:04;45214.72;;;-143.84;90.59
6032;BME280;3044;43.232;27.972;2024-02-16T11:06:44;45210.94;;;-143.84;90.15
6032;BME280;3044;43.232;27.972;2024-02-16T11:09:11;45210.94;;;-143.84;90.21
6032;BME280;3044;43.232;27.972;2024-02-16T11:11:52;45191.88;;;-143.84;90.03
6032;BME280;3044;43.232;27.972;2024-02-16T11:14:21;45216.63;;;-143.84;89.84
6032;BME280;3044;43.232;27.972;2024-02-16T11:16:49;45214.72;;;-143.84;89.41
6032;BME280;3044;43.232;27.972;2024-02-16T11:19:16;45199.50;;;-143.84;89.02
6032;BME280;3044;43.232;27.972;2024-02-16T11:21:57;45205.22;;;-143.84;89.12
6032;BME280;3044;43.232;27.972;2024-02-16T11:24:30;45197.59;;;-143.84;88.56
6032;BME280;3044;43.232;27.972;2024-02-16T11:27:01;45197.59;;;-143.84;87.77
6032;BME280;3044;43.232;27.972;2024-02-16T11:29:31;45224.25;;;-143.84;87.49
6032;BME280;3044;43.232;27.972;2024-02-16T11:31:58;45205.22;;;-143.84;87.69
6032;BME280;3044;43.232;27.972;2024-02-16T11:34:26;45218.53;;;-143.84;87.16
6032;BME280;3044;43.232;27.972;2024-02-16T11:36:54;45289.00;;;-143.84;86.56
6032;BME280;3044;43.232;27.972;2024-02-16T11:39:22;45233.78;;;-143.84;86.11
6032;BME280;3044;43.232;27.972;2024-02-16T11:42:00;45193.78;;;-143.84;85.48
6032;BME280;3044;43.232;27.972;2024-02-16T11:44:29;45237.59;;;-143.84;86.03
6032;BME280;3044;43.232;27.972;2024-02-16T11:46:57;45239.50;;;-143.84;86.05
6032;BME280;3044;43.232;27.972;2024-02-16T11:49:24;45216.63;;;-143.84;87.39
6032;BME280;3044;43.232;27.972;2024-02-16T11:51:52;45193.78;;;-143.84;87.41
6032;BME280;3044;43.232;27.972;2024-02-16T11:54:19;45226.16;;;-143.84;86.85
6032;BME280;3044;43.232;27.972;2024-02-16T11:56:47;45201.41;;;-143.84;86.86
6032;BME280;3044;43.232;27.972;2024-02-16T11:59:18;45203.31;;;-143.84;86.50
6032;BME280;3044;43.232;27.972;2024-02-16T12:01:50;45197.59;;;-143.84;86.76
6032;BME280;3044;43.232;27.972;2024-02-16T12:04:24;45212.84;;;-143.84;86.45
6032;BME280;3044;43.232;27.972;2024-02-16T12:06:52;45222.34;;;-143.84;86.38
6032;BME280;3044;43.232;27.972;2024-02-16T12:09:20;45214.72;;;-143.84;86.24
6032;BME280;3044;43.232;27.972;2024-02-16T12:11:48;45201.41;;;-143.84;86.48
6032;BME280;3044;43.232;27.972;2024-02-16T12:14:18;45197.59;;;-143.84;86.48
6032;BME280;3044;43.232;27.972;2024-02-16T12:16:47;45191.88;;;-143.84;86.08
6032;BME280;3044;43.232;27.972;2024-02-16T12:19:15;45216.63;;;-143.84;85.86
6032;BME280;3044;43.232;27.972;2024-02-16T12:21:42;45212.84;;;-143.84;86.22
6032;BME280;3044;43.232;27.972;2024-02-16T12:24:09;45231.88;;;-143.84;85.46
6032;BME280;3044;43.232;27.972;2024-02-16T12:26:37;45203.31;;;-143.84;85.81
6032;BME280;3044;43.232;27.972;2024-02-16T12:29:05;45210.94;;;-143.84;85.98
6032;BME280;3044;43.232;27.972;2024-02-16T12:31:34;45224.25;;;-143.84;85.51
6032;BME280;3044;43.232;27.972;2024-02-16T12:34:03;45228.06;;;-143.84;85.78
6032;BME280;3044;43.232;27.972;2024-02-16T12:36:33;45224.25;;;-143.84;86.70
6032;BME280;3044;43.232;27.972;2024-02-16T12:39:01;45216.63;;;-143.84;86.03
6032;BME280;3044;43.232;27.972;2024-02-16T12:41:29;45201.41;;;-143.84;86.82
6032;BME280;3044;43.232;27.972;2024-02-16T12:43:56;45220.44;;;-143.84;86.89
6032;BME280;3044;43.232;27.972;2024-02-16T12:46:24;45201.41;;;-143.84;87.10
6032;BME280;3044;43.232;27.972;2024-02-16T12:48:52;45226.16;;;-143.84;87.86
6032;BME280;3044;43.232;27.972;2024-02-16T12:51:20;45210.94;;;-143.84;88.39
6032;BME280;3044;43.232;27.972;2024-02-16T12:53:47;45205.22;;;-143.84;88.71